Time;durP1;ratioP1;P1;durP2;ratioP2;P2;SDS_P1;SDS_P2;PMS_P1;PMS_P2;Temp;Humidity;BMP_temperature;BMP_pressure;BME280_temperature;BME280_humidity;BME280_pressure;Samples;Min_cycle;Max_cycle;Signal;HPM_P1;HPM_P2
2024/04/17 00:00:38;;;;;;;6.75;2.25;;;;;;;6.85;100.00;101250.16;5351459;26;20239;-60
2024/04/17 00:03:04;;;;;;;12.30;2.40;;;;;;;7.05;100.00;101254.19;5351803;26;20858;-60
2024/04/17 00:05:29;;;;;;;6.32;1.65;;;;;;;6.75;100.00;101249.47;5331474;26;20241;-60
2024/04/17 00:07:55;;;;;;;3.55;1.30;;;;;;;6.85;100.00;101247.50;5351970;26;20304;-60
2024/04/17 00:10:20;;;;;;;3.78;1.60;;;;;;;6.81;100.00;101245.78;5329160;26;20235;-60
2024/04/17 00:12:45;;;;;;;6.80;1.80;;;;;;;7.08;100.00;101247.00;5352778;26;20352;-60
2024/04/17 00:15:11;;;;;;;2.80;1.48;;;;;;;7.17;100.00;101235.25;5352276;26;20692;-59
2024/04/17 00:17:36;;;;;;;7.95;1.70;;;;;;;6.85;100.00;101239.50;5352715;26;20231;-59
2024/04/17 00:20:02;;;;;;;6.15;1.67;;;;;;;6.95;100.00;101248.16;5354728;26;20235;-59
2024/04/17 00:22:28;;;;;;;4.07;1.30;;;;;;;6.93;100.00;101240.19;5356064;26;20238;-59
2024/04/17 00:24:53;;;;;;;2.65;1.20;;;;;;;7.00;100.00;101248.06;5354162;26;20273;-59
2024/04/17 00:27:19;;;;;;;7.63;1.63;;;;;;;7.12;100.00;101240.69;5355760;26;20235;-60
2024/04/17 00:29:44;;;;;;;4.93;1.50;;;;;;;7.38;100.00;101235.66;5355231;26;20251;-60
2024/04/17 00:32:09;;;;;;;7.45;1.42;;;;;;;7.38;100.00;101230.34;5356110;26;20294;-60
2024/04/17 00:34:35;;;;;;;7.00;1.50;;;;;;;7.22;100.00;101219.16;5355037;26;20235;-60
2024/04/17 00:37:01;;;;;;;2.78;1.60;;;;;;;7.32;100.00;101234.03;5355359;26;20231;-60
2024/04/17 00:39:26;;;;;;;8.25;1.92;;;;;;;7.52;100.00;101227.34;5355969;26;20238;-60
2024/04/17 00:41:51;;;;;;;7.35;2.15;;;;;;;7.35;100.00;101225.06;5356393;26;20235;-60
2024/04/17 00:44:17;;;;;;;5.13;1.42;;;;;;;7.57;100.00;101231.66;5355983;26;20235;-60
2024/04/17 00:46:43;;;;;;;2.60;1.27;;;;;;;7.59;100.00;101237.81;5325798;26;20246;-60
2024/04/17 00:49:09;;;;;;;7.57;1.65;;;;;;;7.83;100.00;101235.47;5353911;26;20235;-59
2024/04/17 00:51:35;;;;;;;7.90;2.10;;;;;;;7.09;100.00;101227.44;5352026;26;20289;-60
2024/04/17 00:54:01;;;;;;;5.80;1.50;;;;;;;7.16;100.00;101237.97;5353585;26;20239;-60
2024/04/17 00:56:26;;;;;;;9.38;1.92;;;;;;;6.99;100.00;101236.53;5352030;26;20741;-60
2024/04/17 00:58:52;;;;;;;10.93;2.08;;;;;;;6.62;100.00;101241.78;5353828;26;20293;-60
2024/04/17 01:01:17;;;;;;;6.50;1.70;;;;;;;6.51;100.00;101244.63;5353727;26;20243;-60
2024/04/17 01:03:43;;;;;;;9.90;2.00;;;;;;;6.39;100.00;101237.78;5350951;26;20235;-60
2024/04/17 01:06:08;;;;;;;4.60;1.70;;;;;;;6.50;100.00;101234.91;5353301;26;20247;-59
2024/04/17 01:08:34;;;;;;;10.85;2.15;;;;;;;6.46;100.00;101239.38;5346847;26;20236;-60
2024/04/17 01:11:00;;;;;;;12.13;1.85;;;;;;;6.38;100.00;101226.22;5335473;26;20670;-59
2024/04/17 01:13:25;;;;;;;5.53;1.85;;;;;;;6.48;100.00;101231.38;5350923;26;20295;-60
2024/04/17 01:15:51;;;;;;;7.95;1.48;;;;;;;6.50;100.00;101232.25;5353262;26;20632;-60
2024/04/17 01:18:17;;;;;;;5.90;1.70;;;;;;;6.25;100.00;101222.06;5352696;26;20337;-60
2024/04/17 01:20:43;;;;;;;11.25;2.15;;;;;;;6.25;100.00;101232.72;5351522;26;20725;-59
2024/04/17 01:23:08;;;;;;;7.55;2.38;;;;;;;6.22;100.00;101219.47;5353340;26;20294;-59
2024/04/17 01:25:34;;;;;;;8.07;1.95;;;;;;;6.41;100.00;101236.81;5353397;26;20290;-62
2024/04/17 01:27:59;;;;;;;8.52;1.60;;;;;;;6.32;100.00;101233.47;5353025;26;20347;-60
2024/04/17 01:30:24;;;;;;;16.70;2.70;;;;;;;6.33;100.00;101224.59;5353696;26;20235;-60
2024/04/17 01:32:50;;;;;;;11.02;1.75;;;;;;;6.25;100.00;101228.25;5352476;26;20591;-61
2024/04/17 01:35:15;;;;;;;9.30;2.35;;;;;;;6.28;100.00;101230.00;5355559;26;20235;-60
2024/04/17 01:37:40;;;;;;;14.27;2.63;;;;;;;6.57;100.00;101237.41;5355624;26;20289;-60
2024/04/17 01:40:06;;;;;;;12.43;2.42;;;;;;;6.67;100.00;101230.09;5355703;26;20235;-60
2024/04/17 01:42:31;;;;;;;10.88;2.13;;;;;;;6.39;100.00;101237.78;5354566;26;20303;-60
2024/04/17 01:44:57;;;;;;;5.82;2.00;;;;;;;6.54;100.00;101236.56;5354836;26;20348;-60
2024/04/17 01:47:22;;;;;;;12.65;2.05;;;;;;;6.45;100.00;101236.75;5352709;26;20293;-59
2024/04/17 01:49:47;;;;;;;9.55;2.30;;;;;;;6.35;100.00;101230.75;5354184;26;20293;-58
2024/04/17 01:52:13;;;;;;;7.18;1.85;;;;;;;6.17;100.00;101231.97;5353053;26;20231;-61
2024/04/17 01:54:38;;;;;;;10.98;1.75;;;;;;;6.63;100.00;101232.84;5354089;26;20380;-62
2024/04/17 01:57:04;;;;;;;7.40;2.10;;;;;;;6.48;100.00;101220.72;5353556;26;20598;-61
2024/04/17 01:59:29;;;;;;;9.35;2.30;;;;;;;6.81;100.00;101218.28;5353812;26;20247;-61
2024/04/17 02:01:54;;;;;;;6.45;1.80;;;;;;;6.71;100.00;101226.47;5351349;26;20305;-60
2024/04/17 02:04:20;;;;;;;12.38;1.48;;;;;;;6.74;100.00;101214.91;5353096;26;20276;-61
2024/04/17 02:06:45;;;;;;;10.05;2.03;;;;;;;6.30;100.00;101212.22;5354065;26;20239;-61
2024/04/17 02:09:10;;;;;;;10.75;2.17;;;;;;;6.28;100.00;101222.03;5356006;26;20290;-61
2024/04/17 02:11:36;;;;;;;8.52;1.52;;;;;;;6.30;100.00;101236.16;5354591;26;20285;-61
2024/04/17 02:14:01;;;;;;;8.90;2.22;;;;;;;6.31;100.00;101250.31;5353055;26;20235;-60
2024/04/17 02:16:26;;;;;;;6.65;1.55;;;;;;;6.13;100.00;101240.94;5352236;26;20290;-60
2024/04/17 02:18:52;;;;;;;11.77;2.67;;;;;;;6.15;100.00;101229.34;5347334;26;20634;-61
2024/04/17 02:21:17;;;;;;;11.43;1.90;;;;;;;6.06;100.00;101214.44;5344195;26;20247;-61
2024/04/17 02:23:46;;;;;;;3.88;1.48;;;;;;;5.93;100.00;101178.31;5353378;26;20284;-59
2024/04/17 02:26:12;;;;;;;9.23;1.88;;;;;;;6.19;100.00;101222.19;5351589;26;20227;-59
2024/04/17 02:28:37;;;;;;;8.13;1.88;;;;;;;6.28;100.00;101218.47;5351307;26;20713;-59
2024/04/17 02:31:02;;;;;;;9.73;2.13;;;;;;;6.34;100.00;101219.25;5352033;26;20243;-60
2024/04/17 02:33:28;;;;;;;10.15;2.10;;;;;;;6.79;100.00;101218.31;5351981;26;20340;-59
2024/04/17 02:35:53;;;;;;;16.60;2.42;;;;;;;6.41;100.00;101225.31;5352195;26;20274;-60
2024/04/17 02:38:18;;;;;;;9.10;1.90;;;;;;;6.10;100.00;101230.34;5351737;26;20238;-60
2024/04/17 02:40:44;;;;;;;8.82;2.08;;;;;;;6.17;100.00;101226.63;5351377;26;20291;-60
2024/04/17 02:43:09;;;;;;;13.82;2.60;;;;;;;6.65;100.00;101223.06;5350976;26;20243;-59
2024/04/17 02:45:34;;;;;;;12.70;2.10;;;;;;;6.23;100.00;101231.84;5378968;26;20243;-61
2024/04/17 02:48:00;;;;;;;12.05;2.30;;;;;;;6.30;100.00;101229.97;5351803;26;20801;-59
2024/04/17 02:50:26;;;;;;;10.80;3.03;;;;;;;6.38;100.00;101225.38;5350851;26;20631;-59
2024/04/17 02:52:51;;;;;;;10.65;2.97;;;;;;;6.61;100.00;101224.91;5351478;26;20285;-60
2024/04/17 02:55:16;;;;;;;11.80;3.13;;;;;;;6.27;100.00;101230.03;5351102;26;20281;-60
2024/04/17 02:57:42;;;;;;;12.68;3.15;;;;;;;6.26;100.00;101223.81;5350745;26;20255;-60
2024/04/17 03:00:08;;;;;;;11.90;1.73;;;;;;;6.25;100.00;101224.75;5350390;26;20716;-59
2024/04/17 03:02:33;;;;;;;13.60;2.35;;;;;;;6.29;100.00;101214.91;5351287;26;20293;-60
2024/04/17 03:04:58;;;;;;;6.07;2.17;;;;;;;6.36;100.00;101220.06;5350446;26;20239;-60
2024/04/17 03:07:24;;;;;;;10.02;1.90;;;;;;;6.20;100.00;101218.59;5349321;26;20243;-60
2024/04/17 03:09:50;;;;;;;9.68;2.22;;;;;;;6.02;100.00;101226.03;5347833;26;20290;-60
2024/04/17 03:12:16;;;;;;;11.15;2.28;;;;;;;6.08;100.00;101225.06;5324914;26;20231;-60
2024/04/17 03:14:42;;;;;;;12.55;2.65;;;;;;;6.12;100.00;101233.84;5348108;26;20281;-60
2024/04/17 03:17:07;;;;;;;10.80;2.20;;;;;;;6.31;100.00;101229.03;5348001;26;20247;-60
2024/04/17 03:19:32;;;;;;;11.85;2.58;;;;;;;6.31;100.00;101235.25;5347416;26;20238;-60
2024/04/17 03:21:58;;;;;;;17.17;2.45;;;;;;;6.32;100.00;101239.66;5324468;26;20231;-61
2024/04/17 03:24:23;;;;;;;9.98;2.13;;;;;;;5.72;100.00;101222.09;5347592;26;20242;-61
2024/04/17 03:26:48;;;;;;;9.35;2.00;;;;;;;6.05;100.00;101238.41;5346790;26;20277;-61
2024/04/17 03:29:14;;;;;;;10.73;2.15;;;;;;;5.84;100.00;101235.16;5347577;26;20303;-62
2024/04/17 03:31:39;;;;;;;13.50;2.60;;;;;;;5.62;100.00;101247.06;5347493;26;20289;-62
2024/04/17 03:34:04;;;;;;;11.30;2.13;;;;;;;5.91;100.00;101243.91;5347029;26;20258;-61
2024/04/17 03:36:31;;;;;;;13.38;2.30;;;;;;;5.67;100.00;101238.09;5346484;26;20227;-60
2024/04/17 03:38:56;;;;;;;10.23;4.03;;;;;;;5.85;100.00;101251.97;5347209;26;20772;-61
2024/04/17 03:41:21;;;;;;;10.55;2.33;;;;;;;5.69;100.00;101248.72;5346735;26;20349;-61
2024/04/17 03:43:47;;;;;;;12.80;2.75;;;;;;;5.87;100.00;101244.88;5339620;26;20710;-61
2024/04/17 03:46:12;;;;;;;9.35;2.55;;;;;;;6.05;100.00;101249.03;5346877;26;20239;-61
2024/04/17 03:48:37;;;;;;;5.97;1.95;;;;;;;6.05;100.00;101252.56;5347309;26;20285;-61
2024/04/17 03:51:03;;;;;;;17.20;3.35;;;;;;;5.72;100.00;101246.88;5347327;26;20767;-60
2024/04/17 03:53:28;;;;;;;14.02;2.40;;;;;;;6.00;100.00;101251.78;5348972;26;20332;-60
2024/04/17 03:55:54;;;;;;;10.05;2.15;;;;;;;5.60;100.00;101244.41;5350564;26;20285;-61
2024/04/17 03:58:20;;;;;;;10.85;2.20;;;;;;;5.76;100.00;101253.03;5350815;26;20251;-60
2024/04/17 04:00:47;;;;;;;10.60;2.65;;;;;;;5.85;100.00;101246.66;5354312;26;20243;-60
2024/04/17 04:03:12;;;;;;;6.13;1.63;;;;;;;5.96;100.00;101254.50;5350957;26;20584;-60
2024/04/17 04:05:37;;;;;;;10.07;2.35;;;;;;;5.99;100.00;101259.78;5350319;26;20286;-60
2024/04/17 04:08:03;;;;;;;10.50;2.25;;;;;;;5.85;100.00;101251.97;5348720;26;20349;-59
2024/04/17 04:10:28;;;;;;;10.35;1.95;;;;;;;6.14;100.00;101247.97;5350644;26;20235;-60
2024/04/17 04:12:54;;;;;;;8.88;1.88;;;;;;;5.88;100.00;101243.97;5351599;26;20244;-60
2024/04/17 04:15:19;;;;;;;12.40;2.08;;;;;;;5.67;100.00;101253.19;5351092;26;20286;-60
2024/04/17 04:17:45;;;;;;;17.35;2.25;;;;;;;5.64;100.00;101246.13;5351133;26;20401;-60
2024/04/17 04:20:10;;;;;;;11.63;2.05;;;;;;;5.65;100.00;101250.56;5350846;26;20721;-60
2024/04/17 04:22:36;;;;;;;5.80;1.80;;;;;;;5.99;100.00;101250.03;5351019;26;20250;-59
2024/04/17 04:25:01;;;;;;;7.32;2.38;;;;;;;5.98;100.00;101244.72;5351153;26;20231;-60
2024/04/17 04:27:26;;;;;;;12.55;1.90;;;;;;;5.62;100.00;101255.03;5350196;26;20791;-59
2024/04/17 04:29:52;;;;;;;9.30;1.50;;;;;;;5.79;100.00;101253.00;5351176;26;20266;-60
2024/04/17 04:32:17;;;;;;;12.15;2.03;;;;;;;5.76;100.00;101257.44;5351052;26;20243;-60
2024/04/17 04:34:42;;;;;;;10.48;1.92;;;;;;;5.92;100.00;101253.66;5343055;26;20753;-60
2024/04/17 04:37:08;;;;;;;7.18;1.58;;;;;;;6.11;100.00;101248.03;5339956;26;20239;-60
2024/04/17 04:39:33;;;;;;;10.98;1.80;;;;;;;6.06;100.00;101248.13;5350732;26;20235;-60
2024/04/17 04:41:59;;;;;;;6.57;1.80;;;;;;;6.17;99.07;101240.84;5351380;26;20760;-60
2024/04/17 04:44:24;;;;;;;17.20;2.30;;;;;;;6.05;98.58;101244.59;5353239;26;20239;-59
2024/04/17 04:46:51;;;;;;;8.48;2.00;;;;;;;6.19;97.22;101246.13;5353360;26;20577;-59
2024/04/17 04:49:16;;;;;;;7.25;1.33;;;;;;;5.74;100.00;101252.16;5353065;26;20239;-59
2024/04/17 04:51:42;;;;;;;11.20;2.38;;;;;;;5.79;100.00;101241.44;5353822;26;20231;-59
2024/04/17 04:54:07;;;;;;;13.05;1.92;;;;;;;5.93;100.00;101250.09;5352298;26;20243;-60
2024/04/17 04:56:32;;;;;;;8.70;2.50;;;;;;;6.06;100.00;101259.66;5354438;26;20243;-59
2024/04/17 04:58:58;;;;;;;10.48;2.42;;;;;;;6.06;99.84;101251.69;5354463;26;20356;-61
2024/04/17 05:01:24;;;;;;;5.75;1.70;;;;;;;6.18;99.67;101252.34;5355511;26;20282;-58
2024/04/17 05:03:50;;;;;;;6.60;1.35;;;;;;;6.06;99.78;101254.34;5354408;26;20767;-59
2024/04/17 05:06:15;;;;;;;9.55;2.00;;;;;;;5.99;99.00;101252.69;5353321;26;20235;-61
2024/04/17 05:08:40;;;;;;;10.57;2.10;;;;;;;6.40;97.53;101248.38;5353961;26;20274;-59
2024/04/17 05:11:06;;;;;;;6.78;1.85;;;;;;;6.48;97.57;101252.66;5353890;26;20239;-61
2024/04/17 05:13:31;;;;;;;5.32;1.52;;;;;;;6.20;98.05;101250.53;5353700;26;20236;-61
2024/04/17 05:15:56;;;;;;;11.15;2.45;;;;;;;6.29;98.22;101247.69;5354168;26;20250;-60
2024/04/17 05:18:22;;;;;;;11.02;1.90;;;;;;;6.37;97.79;101248.44;5354778;26;20278;-58
2024/04/17 05:20:47;;;;;;;6.57;1.65;;;;;;;6.62;96.46;101245.31;5355066;26;20512;-60
2024/04/17 05:23:13;;;;;;;11.88;2.63;;;;;;;6.40;96.57;101243.06;5355264;26;20317;-61
2024/04/17 05:25:39;;;;;;;6.43;1.80;;;;;;;6.26;97.30;101234.44;5354081;26;20235;-59
2024/04/17 05:28:05;;;;;;;8.15;2.28;;;;;;;6.16;98.43;101248.84;5356189;26;20286;-60
2024/04/17 05:30:30;;;;;;;11.20;2.75;;;;;;;6.14;99.04;101247.97;5355928;26;20577;-59
2024/04/17 05:32:56;;;;;;;7.35;1.70;;;;;;;6.22;99.97;101246.94;5333722;26;20295;-59
2024/04/17 05:35:21;;;;;;;8.82;2.00;;;;;;;6.01;100.00;101250.84;5356236;26;20235;-60
2024/04/17 05:37:46;;;;;;;11.20;2.58;;;;;;;6.19;100.00;101247.00;5355481;26;20570;-59
2024/04/17 05:40:12;;;;;;;10.80;2.55;;;;;;;6.54;100.00;101244.56;5382832;26;20325;-59
2024/04/17 05:42:37;;;;;;;8.60;2.10;;;;;;;6.66;100.00;101248.75;5353646;26;20243;-59
2024/04/17 05:45:03;;;;;;;9.35;1.52;;;;;;;6.90;99.22;101242.94;5354228;26;20243;-60
2024/04/17 05:47:29;;;;;;;13.80;1.65;;;;;;;6.96;98.14;101237.47;5330355;26;20388;-60
2024/04/17 05:49:54;;;;;;;12.05;1.95;;;;;;;6.88;97.45;101241.22;5352840;26;20340;-60
2024/04/17 05:52:20;;;;;;;14.10;2.35;;;;;;;6.63;96.76;101233.75;5352144;26;20254;-60
2024/04/17 05:54:46;;;;;;;15.90;2.88;;;;;;;6.99;96.08;101238.34;5352661;26;20278;-59
2024/04/17 05:57:11;;;;;;;10.30;1.88;;;;;;;7.08;95.13;101244.31;5329944;26;20239;-60
2024/04/17 05:59:36;;;;;;;10.68;1.77;;;;;;;7.07;94.40;101245.22;5357965;26;20310;-59
2024/04/17 06:02:02;;;;;;;9.82;1.67;;;;;;;7.03;94.59;101250.66;5357826;26;20328;-59
2024/04/17 06:04:29;;;;;;;5.32;1.73;;;;;;;7.01;95.29;101247.16;5355328;26;20247;-59
2024/04/17 06:06:55;;;;;;;8.43;1.70;;;;;;;7.38;94.02;101225.00;5382576;26;20255;-60
2024/04/17 06:09:20;;;;;;;14.38;2.08;;;;;;;7.20;95.76;101256.50;5365381;26;20279;-59
2024/04/17 06:11:45;;;;;;;10.98;1.98;;;;;;;7.34;94.03;101250.00;5346410;26;20251;-60
2024/04/17 06:14:11;;;;;;;11.75;1.88;;;;;;;7.56;93.74;101256.56;5353220;26;20767;-59
2024/04/17 06:16:38;;;;;;;5.68;1.70;;;;;;;7.93;92.53;101255.66;5353242;26;20263;-59
2024/04/17 06:19:03;;;;;;;12.65;2.10;;;;;;;8.17;88.87;101253.28;5351601;26;20841;-59
2024/04/17 06:21:28;;;;;;;10.27;1.58;;;;;;;7.70;87.17;101237.56;5354520;26;20328;-61
2024/04/17 06:23:54;;;;;;;5.43;1.77;;;;;;;7.82;87.53;101253.25;5356528;26;20235;-60
2024/04/17 06:26:19;;;;;;;6.15;1.63;;;;;;;8.07;87.91;101258.00;5332760;26;20239;-60
2024/04/17 06:28:45;;;;;;;13.30;1.63;;;;;;;8.56;85.65;101237.13;5356575;26;20340;-58
2024/04/17 06:31:10;;;;;;;10.43;1.88;;;;;;;8.34;86.20;101247.47;5331856;26;20327;-60
2024/04/17 06:33:35;;;;;;;7.88;1.73;;;;;;;8.25;86.88;101253.94;5353643;26;20273;-60
2024/04/17 06:36:01;;;;;;;3.97;1.55;;;;;;;8.52;87.31;101240.78;5353162;26;20289;-59
2024/04/17 06:38:26;;;;;;;5.05;1.40;;;;;;;8.67;86.17;101237.69;5353207;26;20243;-59
2024/04/17 06:40:52;;;;;;;10.80;2.15;;;;;;;8.83;86.42;101229.22;5352462;26;20246;-59
2024/04/17 06:43:17;;;;;;;11.27;1.38;;;;;;;8.75;86.34;101238.34;5352375;26;20242;-60
2024/04/17 06:45:45;;;;;;;8.38;1.20;;;;;;;8.23;84.49;101245.09;5352251;26;20325;-59
2024/04/17 06:48:11;;;;;;;4.40;1.00;;;;;;;8.20;83.92;101263.88;5352016;26;20586;-60
2024/04/17 06:50:36;;;;;;;7.32;1.10;;;;;;;8.38;82.53;101263.38;5351484;26;20321;-60
2024/04/17 06:53:01;;;;;;;2.60;0.88;;;;;;;7.94;81.34;101253.88;5336711;26;20341;-60
2024/04/17 06:55:27;;;;;;;2.88;1.15;;;;;;;7.45;81.92;101240.81;5341992;26;20243;-60
2024/04/17 06:57:52;;;;;;;5.18;1.20;;;;;;;7.90;82.42;101253.09;5351129;26;20251;-60
2024/04/17 07:00:20;;;;;;;5.78;1.58;;;;;;;7.00;86.09;101243.63;5350383;26;20243;-59
2024/04/17 07:02:45;;;;;;;2.53;1.40;;;;;;;6.80;87.24;101244.06;5335746;26;20247;-60
2024/04/17 07:05:11;;;;;;;3.70;1.20;;;;;;;6.83;88.50;101233.34;5343602;26;20385;-59
2024/04/17 07:07:36;;;;;;;6.60;1.40;;;;;;;7.16;88.15;101238.81;5349379;26;20235;-59
2024/04/17 07:10:02;;;;;;;2.90;1.23;;;;;;;7.31;86.72;101240.28;5349056;26;20625;-59
2024/04/17 07:12:27;;;;;;;4.00;1.15;;;;;;;7.38;86.37;101247.22;5349723;26;20235;-60
2024/04/17 07:14:52;;;;;;;3.08;0.95;;;;;;;7.68;85.32;101245.59;5348811;26;20343;-59
2024/04/17 07:17:18;;;;;;;4.80;1.30;;;;;;;7.47;86.19;101244.34;5349162;26;20278;-60
2024/04/17 07:19:43;;;;;;;3.08;1.10;;;;;;;7.89;85.37;101251.31;5349193;26;20235;-59
2024/04/17 07:22:08;;;;;;;2.05;1.63;;;;;;;8.16;83.95;101246.16;5349893;26;20257;-59
2024/04/17 07:24:34;;;;;;;7.95;1.52;;;;;;;8.12;83.80;101256.06;5349172;26;20239;-60
2024/04/17 07:26:59;;;;;;;6.40;1.58;;;;;;;8.33;84.34;101253.72;5352321;26;20336;-60
2024/04/17 07:29:25;;;;;;;2.78;1.80;;;;;;;8.32;84.07;101250.19;5353597;26;20227;-59
2024/04/17 07:31:50;;;;;;;5.85;1.30;;;;;;;8.53;84.14;101251.44;5356150;26;20231;-60
2024/04/17 07:34:16;;;;;;;5.60;1.60;;;;;;;8.68;83.64;101242.13;5347049;26;20282;-60
2024/04/17 07:36:41;;;;;;;3.20;1.30;;;;;;;8.77;83.80;101237.41;5349628;26;20336;-60
2024/04/17 07:39:07;;;;;;;7.40;1.60;;;;;;;8.78;84.75;101234.69;5350121;26;20600;-60
2024/04/17 07:41:32;;;;;;;3.58;1.80;;;;;;;8.90;83.92;101239.69;5351406;26;20235;-60
2024/04/17 07:43:57;;;;;;;4.47;1.58;;;;;;;9.16;82.88;101234.47;5346544;26;20251;-60
2024/04/17 07:46:23;;;;;;;5.43;2.10;;;;;;;9.02;82.50;101229.53;5350242;26;20281;-60
2024/04/17 07:48:50;;;;;;;3.22;1.20;;;;;;;9.19;82.72;101229.03;5345284;26;20240;-60
2024/04/17 07:51:16;;;;;;;4.65;1.45;;;;;;;9.28;81.99;101234.09;5351181;26;20247;-61
2024/04/17 07:53:41;;;;;;;4.13;1.30;;;;;;;9.37;81.41;101227.56;5358255;26;20234;-61
2024/04/17 07:56:06;;;;;;;3.05;1.70;;;;;;;9.43;83.61;101236.28;5352680;26;20369;-61
2024/04/17 07:58:32;;;;;;;4.88;1.40;;;;;;;9.60;85.39;101237.53;5356586;26;20284;-60
2024/04/17 08:00:57;;;;;;;4.68;1.65;;;;;;;9.87;84.72;101226.84;5357626;26;20235;-60
2024/04/17 08:03:22;;;;;;;4.82;1.65;;;;;;;10.11;82.83;101227.81;5356761;26;20250;-60
2024/04/17 08:05:48;;;;;;;5.20;1.10;;;;;;;10.77;76.81;101227.25;5337862;26;20255;-60
2024/04/17 08:08:13;;;;;;;6.57;1.30;;;;;;;10.58;75.89;101235.09;5340565;26;20764;-61
2024/04/17 08:10:39;;;;;;;6.22;1.50;;;;;;;10.76;73.09;101222.81;5326887;26;20313;-61
2024/04/17 08:13:15;;;;;;;10.05;2.53;;;;;;;10.43;75.38;101231.16;5341826;26;20337;-60
2024/04/17 08:15:49;;;;;;;6.43;1.80;;;;;;;10.65;79.57;101204.47;5349466;26;20283;-59
2024/04/17 08:18:14;;;;;;;2.78;1.20;;;;;;;11.21;80.98;101220.19;5350583;26;20331;-59
2024/04/17 08:20:40;;;;;;;7.97;1.90;;;;;;;11.44;77.21;101221.06;5350943;26;20251;-59
2024/04/17 08:23:05;;;;;;;4.28;1.38;;;;;;;11.59;74.43;101224.91;5350951;26;20243;-59
2024/04/17 08:25:31;;;;;;;3.92;1.33;;;;;;;11.49;72.73;101219.06;5351295;26;20379;-59
2024/04/17 08:27:56;;;;;;;4.10;2.22;;;;;;;11.64;72.54;101222.03;5350451;26;20247;-59
2024/04/17 08:30:21;;;;;;;4.00;1.23;;;;;;;11.65;70.86;101218.44;5347184;26;20235;-59
2024/04/17 08:32:47;;;;;;;5.30;1.50;;;;;;;11.72;71.12;101219.94;5342483;26;20239;-59
2024/04/17 08:35:12;;;;;;;5.03;1.60;;;;;;;11.99;75.70;101215.25;5342140;26;20231;-59
2024/04/17 08:37:38;;;;;;;4.13;1.23;;;;;;;12.59;74.86;101211.72;5350226;26;20240;-59
2024/04/17 08:40:04;;;;;;;4.15;1.25;;;;;;;13.18;71.51;101207.16;5350993;26;20767;-60
2024/04/17 08:42:32;;;;;;;6.43;1.27;;;;;;;13.33;68.45;101203.75;5354566;26;20584;-59
2024/04/17 08:45:07;;;;;;;3.40;0.80;;;;;;;13.31;66.99;101194.00;5352396;26;20235;-60
2024/04/17 08:47:33;;;;;;;4.82;1.52;;;;;;;13.63;62.57;101188.84;5344935;26;20344;-59
2024/04/17 08:49:59;;;;;;;6.00;1.17;;;;;;;13.38;62.07;101198.16;5347066;26;20236;-60
2024/04/17 08:52:25;;;;;;;8.50;1.50;;;;;;;13.41;61.00;101186.38;5355881;26;20270;-60
2024/04/17 08:54:51;;;;;;;4.60;0.90;;;;;;;13.58;59.89;101180.16;5350300;26;20348;-59
2024/04/17 08:57:16;;;;;;;2.72;1.10;;;;;;;13.25;61.42;101168.25;5349339;26;20247;-59
2024/04/17 08:59:41;;;;;;;4.97;1.13;;;;;;;13.09;61.56;101172.63;5376414;26;20246;-59
2024/04/17 09:02:13;;;;;;;3.00;1.23;;;;;;;12.50;65.15;101172.69;5348107;26;20574;-60
2024/04/17 09:04:40;;;;;;;8.40;1.50;;;;;;;12.00;65.73;101171.31;5348321;26;20277;-59
2024/04/17 09:07:06;;;;;;;5.75;1.50;;;;;;;11.42;69.66;101180.00;5338570;26;20290;-60
2024/04/17 09:09:32;;;;;;;4.93;1.80;;;;;;;11.26;71.03;101179.75;5348219;26;20291;-59
2024/04/17 09:11:57;;;;;;;2.72;1.27;;;;;;;11.83;70.32;101187.28;5344455;26;20239;-58
2024/04/17 09:14:23;;;;;;;4.43;1.27;;;;;;;11.49;71.34;101189.56;5343339;26;20324;-58
2024/04/17 09:16:48;;;;;;;2.92;1.55;;;;;;;10.04;75.18;101223.59;5345886;26;20239;-58
2024/04/17 09:19:13;;;;;;;4.68;1.20;;;;;;;8.87;78.41;101254.94;5347599;26;20309;-59
2024/04/17 09:21:39;;;;;;;9.25;2.13;;;;;;;8.56;78.92;101250.47;5332876;26;20248;-59
2024/04/17 09:24:05;;;;;;;6.78;1.70;;;;;;;7.61;80.04;101265.34;5361429;26;20244;-62
2024/04/17 09:26:30;;;;;;;11.88;2.17;;;;;;;7.89;79.94;101255.75;5337364;26;20239;-60
2024/04/17 09:28:56;;;;;;;11.48;1.92;;;;;;;8.25;77.53;101235.25;5340533;26;20262;-61
2024/04/17 09:31:22;;;;;;;4.00;1.52;;;;;;;7.65;81.35;101242.13;5337027;26;20352;-61
2024/04/17 09:33:47;;;;;;;6.88;1.58;;;;;;;7.61;83.26;101241.34;5339252;26;20242;-61
2024/04/17 09:36:13;;;;;;;4.47;1.33;;;;;;;6.92;86.70;101224.25;5337250;26;20231;-59
2024/04/17 09:38:42;;;;;;;5.72;1.83;;;;;;;6.95;89.74;101230.41;5338842;26;20246;-60
2024/04/17 09:41:09;;;;;;;4.78;1.40;;;;;;;7.48;87.95;101219.41;5338399;26;20332;-60
2024/04/17 09:43:40;;;;;;;2.60;1.20;;;;;;;7.77;86.72;101222.28;5335970;26;20290;-61
2024/04/17 09:46:07;;;;;;;11.38;3.63;;;;;;;7.55;88.10;101228.16;5338147;26;20239;-60
2024/04/17 09:48:36;;;;;;;7.75;1.80;;;;;;;7.30;90.32;101231.41;5332814;26;20248;-60
2024/04/17 09:51:06;;;;;;;8.45;1.65;;;;;;;7.47;90.64;101198.13;5338552;26;20281;-60
2024/04/17 09:53:36;;;;;;;3.50;2.05;;;;;;;7.31;91.37;101218.94;5328456;26;20236;-61
2024/04/17 09:56:03;;;;;;;4.07;1.52;;;;;;;6.99;94.01;101231.22;5339880;26;20290;-60
2024/04/17 09:58:32;;;;;;;4.57;2.00;;;;;;;6.82;96.42;101239.56;5327699;26;20286;-60
2024/04/17 10:01:06;;;;;;;3.67;1.75;;;;;;;7.10;96.39;101245.16;5337832;26;20285;-60
2024/04/17 10:03:32;;;;;;;3.53;2.22;;;;;;;6.71;99.01;101245.13;5342172;26;20239;-60
2024/04/17 10:06:00;;;;;;;5.30;2.20;;;;;;;6.27;100.00;101252.19;5334299;26;20708;-61
2024/04/17 10:08:31;;;;;;;4.57;2.17;;;;;;;5.82;100.00;101260.00;5330544;26;20846;-60
2024/04/17 10:10:57;;;;;;;4.53;1.95;;;;;;;6.00;100.00;101265.09;5331409;26;20235;-60
2024/04/17 10:13:23;;;;;;;4.38;1.73;;;;;;;5.95;100.00;101266.88;5350638;26;20705;-61
2024/04/17 10:15:49;;;;;;;4.80;2.38;;;;;;;5.86;100.00;101253.75;5350348;26;20248;-61
2024/04/17 10:18:14;;;;;;;6.90;1.90;;;;;;;6.10;100.00;101267.56;5352208;26;20282;-62
2024/04/17 10:20:41;;;;;;;3.92;2.30;;;;;;;6.02;100.00;101262.41;5352263;26;20243;-60
2024/04/17 10:23:07;;;;;;;6.78;1.45;;;;;;;6.26;100.00;101266.38;5351127;26;20243;-60
2024/04/17 10:25:32;;;;;;;7.07;1.70;;;;;;;6.41;100.00;101259.91;5341018;26;20236;-60
2024/04/17 10:28:10;;;;;;;2.72;1.50;;;;;;;6.19;100.00;101254.13;5343623;26;20251;-60
2024/04/17 10:30:38;;;;;;;2.95;1.65;;;;;;;5.96;100.00;101260.69;5335237;26;20269;-60
2024/04/17 10:33:18;;;;;;;8.52;3.05;;;;;;;6.16;100.00;101252.38;5355155;26;20239;-61
2024/04/17 10:35:46;;;;;;;4.78;1.50;;;;;;;6.48;100.00;101258.88;5352047;26;20235;-60
2024/04/17 10:38:12;;;;;;;6.10;1.45;;;;;;;6.21;100.00;101255.81;5346611;26;20713;-62
2024/04/17 10:40:38;;;;;;;5.43;1.92;;;;;;;6.18;100.00;101253.22;5334394;26;20285;-60
2024/04/17 10:43:06;;;;;;;2.22;1.40;;;;;;;6.25;100.00;101246.03;5390229;26;20300;-59
2024/04/17 10:45:31;;;;;;;2.05;1.13;;;;;;;6.54;100.00;101256.09;5422884;26;20229;-59
2024/04/17 10:48:00;;;;;;;4.18;1.52;;;;;;;6.91;100.00;101254.47;5422577;26;20279;-60
2024/04/17 10:50:26;;;;;;;3.05;1.25;;;;;;;7.20;100.00;101251.19;5422659;26;20238;-60
2024/04/17 10:52:52;;;;;;;3.83;1.30;;;;;;;7.22;100.00;101251.13;5421858;26;20249;-59
2024/04/17 10:55:17;;;;;;;4.57;1.20;;;;;;;7.07;100.00;101252.34;5422596;26;20757;-59
2024/04/17 10:57:43;;;;;;;7.22;1.45;;;;;;;7.45;100.00;101251.47;5419850;26;20292;-60
2024/04/17 11:00:09;;;;;;;5.93;1.35;;;;;;;7.26;100.00;101248.38;5408960;26;20236;-60
2024/04/17 11:02:34;;;;;;;4.93;1.52;;;;;;;7.43;100.00;101255.97;5420698;26;20714;-60
2024/04/17 11:05:01;;;;;;;5.57;1.35;;;;;;;7.69;100.00;101257.16;5402476;26;20308;-60
2024/04/17 11:07:26;;;;;;;3.17;1.58;;;;;;;7.76;100.00;101253.41;5421663;26;20283;-60
2024/04/17 11:09:51;;;;;;;1.75;1.50;;;;;;;7.96;100.00;101252.03;5421934;26;20241;-60
2024/04/17 11:12:19;;;;;;;1.45;1.13;;;;;;;7.39;100.00;101243.63;5387553;26;20233;-62
2024/04/17 11:14:45;;;;;;;2.90;1.10;;;;;;;7.60;100.00;101260.91;5410465;26;20272;-61
2024/04/17 11:17:11;;;;;;;2.00;1.13;;;;;;;7.66;100.00;101243.91;5398258;26;20786;-61